Impacts TAF Board INFO
FOR SITUATIONAL AWARENESS. NOT TO BE USED FOR FLIGHT PLANNING PURPOSES.
IDs:

KDCA - Washington/National, VA, US

Issued at 1143 UTC 24 Feb 2018
Updated at 1409 UTC 24 Feb 2018
Potential Impact None Slight Moderate High
Time<<25/15Z 25/16Z 25/17Z 25/18Z 25/19Z 25/20Z 25/21Z 25/22Z 25/23Z 26/00Z 26/01Z 26/02Z 26/03Z
Type PRVL PRVL PRVL
VIS 5 5 5
CIG 3 3 3
Cover OVC OVC OVC
FltCat LIFR LIFR LIFR
WX -SHRA -SHRA -SHRA
WDir 190 190 190
WSpd 12 12 12
WGst 20 20 20

Raw TAF
KDCA 241143Z 2412/2518 VRB04KT 1/4SM FG OVC002
  FM241600 VRB04KT 1SM BR OVC003
  FM241800 07005KT 3SM BR OVC005
  FM242100 06006KT 2SM -SHRA BR OVC005
  FM250300 08007KT 1SM -SHRADZ BR OVC003
  FM250500 09006KT 3/4SM -SHRADZ BR OVC003
  FM251000 12005KT 3/4SM -SHRA BR OVC003
  FM251500 19012G20KT 5SM -SHRA OVC003


METAR Board
Radar Display
Forecast Discussion

FOR SITUATIONAL AWARENESS. NOT TO BE USED FOR FLIGHT PLANNING PURPOSES.